INFORMACIÓN METAR y TAF
METAR FOR EDLP
ADDS - METARS form results

(2125 UTC 17 January 2020)
Data provider http://aviationweather.gov/metar/data/
 
METAR text: EDLP 172120Z 25008KT 220V280 9999 -RA FEW026 BKN050 08/03 Q1017
Conditions at: EDLP (PADERBORN/LIPPST, DE) observed 2120 UTC 17 January 2020
Temperature: 8.0°C (46°F)
Dewpoint: 3.0°C (37°F) [RH = 71%]
Pressure (altimeter): 30.03 inches Hg (1017.0 mb)
Winds: from the WSW (250 degrees) at 9 MPH (8 knots; 4.1 m/s)
Visibility: 6 or more miles (10+ km)
Ceiling: 5000 feet AGL
Clouds: few clouds at 2600 feet AGL
broken clouds at 5000 feet AGL
Weather: -RA  (light rain)

METAR text: EDLP 172050Z 24008KT 220V280 9999 -RA FEW027 BKN049 08/04 Q1017
Conditions at: EDLP (PADERBORN/LIPPST, DE) observed 2050 UTC 17 January 2020
Temperature: 8.0°C (46°F)
Dewpoint: 4.0°C (39°F) [RH = 76%]
Pressure (altimeter): 30.03 inches Hg (1017.0 mb)
Winds: from the WSW (240 degrees) at 9 MPH (8 knots; 4.1 m/s)
Visibility: 6 or more miles (10+ km)
Ceiling: 4900 feet AGL
Clouds: few clouds at 2700 feet AGL
broken clouds at 4900 feet AGL
Weather: -RA  (light rain)

Forecast for: EDLP (PADERBORN/LIPPST, DE)
Text: TAF EDLP 171700Z 1718/1818 24010KT 9999 SCT040
Forecast period: 1800 UTC 17 January 2020 to 1800 UTC 18 January 2020
Forecast type: FROM: standard forecast or significant change
Winds: from the WSW (240 degrees) at 12 MPH (10 knots; 5.1 m/s)
Visibility: 6 or more miles 10+ km)
Ceiling: at least 12,000 feet AGL
Clouds: scattered clouds at 4000 feet AGL
Weather: no significant weather forecast for this period
Text: TEMPO 1804/1809 BKN011
Forecast period: 0400 to 0900 UTC 18 January 2020
Forecast type: TEMPORARY: The following changes expected for less than half the time period
Visibility: missing
Ceiling: 1100 feet AGL
Clouds: broken clouds at 1100 feet AGL
Weather: no significant weather forecast for this period
Text: PROB30
Forecast period: 1500 to 1800 UTC 18 January 2020
Forecast type: TEMPORARY: The following changes expected for less than half the time period
Winds: from the W (260 degrees) at 17 MPH (15 knots; 7.7 m/s)
Visibility: missing
Ceiling: 1300 feet AGL
Clouds: broken clouds at 1300 feet AGL
Weather: SHRA SHGS  (rain showers, small hail or graupel showers)

MAPA DE AEROPUERTO

INFORMACIÓN DE PISTA
Pista 06 Longitud 7152 ft Ancho 148 ft
Elevación 699 ft Umbral desplazado 0 ft Rumbo de pista 57
Pista 24 Longitud 7152 ft Ancho 148 ft
Elevación 674 ft Umbral desplazado 0 ft Rumbo de pista 237

FRECUANCIAS DEL AEROPUERTO
Tipo ATIS Nombre ATIS Frecuencia 125.725 MHZ
Tipo GND Nombre GND Frecuencia 121.925 MHZ
Tipo INFO Nombre LANGEN INF Frecuencia 129.875 MHZ
Tipo OPS Nombre DISPATCH Frecuencia 130.425 MHZ
Tipo RDR Nombre LANGEN RAD Frecuencia 125.225 MHZ
Tipo TWR Nombre TWR Frecuencia 133.375 MHZ

RADIO AYUDAS DEL AEROPUERTO
Tipo NDB-DME Nombre Paderborn/Lippstadt Frecuencia 354 KHZ